Time;durP1;ratioP1;P1;durP2;ratioP2;P2;SDS_P1;SDS_P2;PMS_P1;PMS_P2;Temp;Humidity;BMP_temperature;BMP_pressure;BME280_temperature;BME280_humidity;BME280_pressure;Samples;Min_cycle;Max_cycle;Signal;HPM_P1;HPM_P2
2022/06/23 00:01:00;;;;;;;6.75;2.83;;;;;;;17.27;66.51;99303.78;5110792;28;20046;-83
2022/06/23 00:03:30;;;;;;;3.67;2.47;;;;;;;17.28;66.52;99305.50;5095163;28;20076;-83
2022/06/23 00:05:59;;;;;;;3.45;2.53;;;;;;;17.27;66.64;99309.06;5076749;28;20024;-83
2022/06/23 00:08:24;;;;;;;3.38;2.42;;;;;;;17.23;66.96;99297.09;5076824;28;20395;-83
2022/06/23 00:10:55;;;;;;;6.35;2.70;;;;;;;17.20;66.90;99312.19;5076691;28;20048;-83
2022/06/23 00:13:25;;;;;;;5.63;2.53;;;;;;;17.13;67.10;99300.47;5076802;28;20020;-83
2022/06/23 00:15:53;;;;;;;3.22;2.20;;;;;;;17.11;67.38;99309.47;5094966;28;20035;-83
2022/06/23 00:18:27;;;;;;;4.65;2.30;;;;;;;17.02;67.33;99304.91;5076280;28;20024;-83
2022/06/23 00:21:00;;;;;;;6.80;2.70;;;;;;;17.03;66.99;99304.78;5076531;28;20036;-82
2022/06/23 00:23:30;;;;;;;7.53;2.72;;;;;;;17.04;67.54;99305.63;5110232;28;20492;-83
2022/06/23 00:26:03;;;;;;;3.88;2.25;;;;;;;17.04;67.62;99311.72;5076450;28;20399;-84
2022/06/23 00:28:58;;;;;;;4.32;2.42;;;;;;;17.03;67.05;99314.50;5076535;28;20024;-83
2022/06/23 00:31:35;;;;;;;4.57;2.38;;;;;;;17.08;67.01;99310.53;5090279;28;20348;-83
2022/06/23 00:34:03;;;;;;;4.22;2.42;;;;;;;17.03;66.66;99302.16;5074647;28;20032;-83
2022/06/23 00:36:37;;;;;;;3.70;2.70;;;;;;;17.11;66.48;99312.09;5074698;28;20119;-83
2022/06/23 00:39:18;;;;;;;3.45;2.40;;;;;;;17.10;66.65;99311.22;5091610;28;20039;-82
2022/06/23 00:41:44;;;;;;;4.50;2.70;;;;;;;17.04;67.16;99305.63;5071378;28;20040;-82
2022/06/23 00:44:19;;;;;;;4.63;2.70;;;;;;;17.08;66.88;99318.41;5054428;28;20047;-82
2022/06/23 00:46:51;;;;;;;5.90;3.00;;;;;;;17.08;66.91;99326.31;5054667;28;20052;-82
2022/06/23 00:49:42;;;;;;;3.95;2.78;;;;;;;17.08;67.03;99334.22;5054490;28;20028;-82
2022/06/23 00:52:18;;;;;;;3.83;2.60;;;;;;;17.06;67.42;99335.28;5071161;28;20041;-82
2022/06/23 00:54:49;;;;;;;4.68;2.95;;;;;;;17.01;67.33;99337.44;5071408;28;20037;-83
2022/06/23 00:57:53;;;;;;;3.40;2.60;;;;;;;17.00;67.40;99335.75;5053975;28;20032;-82
2022/06/23 01:00:27;;;;;;;3.95;2.63;;;;;;;16.96;68.03;99330.75;5011243;28;20049;-83
2022/06/23 01:03:02;;;;;;;3.80;2.80;;;;;;;16.94;67.21;99323.94;4997543;28;20603;-83
2022/06/23 01:05:39;;;;;;;4.80;3.05;;;;;;;16.95;67.32;99325.59;4991749;28;20034;-83
2022/06/23 01:08:13;;;;;;;4.05;3.10;;;;;;;16.94;67.67;99324.78;4975241;28;20576;-82
2022/06/23 01:10:55;;;;;;;3.78;2.83;;;;;;;16.88;67.95;99330.50;4975235;28;20088;-83
2022/06/23 01:13:35;;;;;;;3.05;2.70;;;;;;;16.85;67.64;99333.34;4989659;28;20057;-82
2022/06/23 01:16:15;;;;;;;3.97;2.80;;;;;;;16.81;68.01;99336.34;5010876;28;20033;-82
2022/06/23 01:18:58;;;;;;;5.55;2.97;;;;;;;16.75;68.11;99323.69;5011233;28;20041;-82
2022/06/23 01:21:31;;;;;;;8.57;3.22;;;;;;;16.69;68.94;99335.50;5011122;28;20141;-83
2022/06/23 01:24:24;;;;;;;5.47;2.90;;;;;;;16.64;69.07;99343.72;5011002;28;20038;-83
2022/06/23 01:27:06;;;;;;;3.47;2.60;;;;;;;16.59;69.37;99339.75;4994694;28;20038;-83
2022/06/23 01:29:42;;;;;;;7.13;3.38;;;;;;;16.51;69.63;99332.44;5011104;28;20117;-83
2022/06/23 01:32:24;;;;;;;4.05;2.60;;;;;;;16.53;70.08;99337.63;5010719;28;20041;-83
2022/06/23 01:35:00;;;;;;;3.70;2.75;;;;;;;16.49;70.13;99330.91;5001805;28;20765;-83
2022/06/23 01:37:42;;;;;;;4.38;2.80;;;;;;;16.45;69.64;99330.31;5074903;28;20391;-83
2022/06/23 01:40:19;;;;;;;4.35;2.50;;;;;;;16.34;69.72;99315.34;5092949;28;20024;-83
2022/06/23 01:43:11;;;;;;;3.67;2.63;;;;;;;16.45;70.56;99338.19;5074802;28;20043;-82
2022/06/23 01:45:57;;;;;;;3.15;2.65;;;;;;;16.39;70.36;99341.25;5108810;28;20036;-83
2022/06/23 01:48:53;;;;;;;5.13;2.60;;;;;;;16.37;71.59;99349.28;5074636;28;20032;-83
2022/06/23 01:51:35;;;;;;;3.22;2.42;;;;;;;16.34;71.00;99346.88;5069839;28;20099;-83
2022/06/23 01:54:20;;;;;;;4.50;2.80;;;;;;;16.32;71.28;99343.53;5070507;28;20476;-83
2022/06/23 01:57:01;;;;;;;6.78;2.78;;;;;;;16.32;70.67;99347.97;5070065;28;20039;-82
2022/06/23 02:00:18;;;;;;;4.13;2.97;;;;;;;16.31;71.14;99351.53;5070038;28;20032;-83
2022/06/23 02:02:51;;;;;;;4.40;2.45;;;;;;;16.21;70.94;99343.50;4990790;28;20762;-83
2022/06/23 02:05:38;;;;;;;4.05;2.88;;;;;;;16.24;71.63;99352.94;4990339;28;20034;-83
2022/06/23 02:08:28;;;;;;;4.05;2.67;;;;;;;16.18;72.02;99355.09;4990586;28;20030;-83
2022/06/23 02:11:06;;;;;;;4.03;3.40;;;;;;;16.15;71.68;99359.72;4974038;28;20472;-83
2022/06/23 02:13:51;;;;;;;4.20;2.88;;;;;;;16.09;72.38;99357.53;4990516;28;20701;-82
2022/06/23 02:16:22;;;;;;;3.08;2.78;;;;;;;16.00;73.04;99345.91;4990650;28;20490;-83
2022/06/23 02:18:58;;;;;;;3.47;2.70;;;;;;;16.02;73.26;99362.44;4990416;28;20035;-83
2022/06/23 02:21:39;;;;;;;3.90;2.67;;;;;;;15.96;72.74;99355.81;4978635;28;20493;-83
2022/06/23 02:24:16;;;;;;;3.63;3.00;;;;;;;16.02;73.25;99372.09;4993466;28;20476;-83
2022/06/23 02:26:54;;;;;;;2.90;2.67;;;;;;;16.01;73.39;99373.03;4993523;28;20034;-83
2022/06/23 02:29:27;;;;;;;4.65;2.80;;;;;;;15.95;73.65;99372.53;4993547;28;20525;-83
2022/06/23 02:32:05;;;;;;;3.97;3.20;;;;;;;15.95;73.43;99377.78;4993568;28;20136;-83
2022/06/23 02:34:36;;;;;;;4.63;3.13;;;;;;;15.94;74.28;99384.00;4993509;28;20104;-83
2022/06/23 02:37:20;;;;;;;4.90;3.60;;;;;;;15.90;74.16;99379.06;4993323;28;20065;-83
2022/06/23 02:39:52;;;;;;;6.97;3.20;;;;;;;15.85;74.74;99384.66;5087673;28;20123;-83
2022/06/23 02:42:34;;;;;;;5.35;3.10;;;;;;;15.77;75.08;99373.88;5070365;28;20067;-83
2022/06/23 02:45:27;;;;;;;4.28;2.90;;;;;;;15.79;75.10;99382.47;5071824;28;20098;-83
2022/06/23 02:48:21;;;;;;;4.75;3.20;;;;;;;15.76;76.00;99387.97;5071820;28;20024;-83
2022/06/23 02:51:28;;;;;;;5.75;3.17;;;;;;;15.75;76.08;99385.44;5070641;28;20036;-83
2022/06/23 02:54:14;;;;;;;4.32;3.08;;;;;;;15.71;76.36;99384.81;5012843;28;20143;-83
2022/06/23 02:56:48;;;;;;;4.57;3.25;;;;;;;15.68;76.99;99388.50;5012749;28;20037;-83
2022/06/23 02:59:25;;;;;;;5.28;3.25;;;;;;;15.65;76.30;99390.50;5028812;28;20042;-83
2022/06/23 03:01:59;;;;;;;3.83;2.88;;;;;;;15.65;77.19;99393.13;5012690;28;20037;-83
2022/06/23 03:04:26;;;;;;;4.22;3.10;;;;;;;15.68;77.03;99399.00;5029029;28;20103;-83
2022/06/23 03:06:51;;;;;;;3.25;2.80;;;;;;;15.69;76.32;99397.22;5029150;28;20034;-83
2022/06/23 03:09:28;;;;;;;6.80;3.10;;;;;;;15.55;76.75;99371.94;5024654;28;20457;-83
2022/06/23 03:12:12;;;;;;;6.55;3.10;;;;;;;15.71;76.57;99404.03;5009676;28;20038;-83
2022/06/23 03:15:03;;;;;;;6.15;3.20;;;;;;;15.73;77.11;99405.72;5009353;28;20072;-83
2022/06/23 03:17:35;;;;;;;;;;;;;;;15.73;77.33;99409.19;5009535;28;20029;-83
2022/06/23 03:20:29;;;;;;;4.93;3.40;;;;;;;15.71;77.35;99417.16;5009331;28;20052;-83
2022/06/23 03:23:00;;;;;;;5.45;3.22;;;;;;;15.71;77.92;99417.16;5012956;28;20045;-83
2022/06/23 03:26:00;;;;;;;4.18;3.40;;;;;;;15.70;78.85;99417.28;5012988;28;20038;-83
2022/06/23 03:28:25;;;;;;;4.80;3.45;;;;;;;15.74;79.09;99421.34;4935485;29;20044;-83
2022/06/23 03:31:00;;;;;;;4.20;3.03;;;;;;;15.73;79.65;99419.69;4949904;29;20561;-83
2022/06/23 03:33:41;;;;;;;6.20;3.92;;;;;;;15.77;80.57;99421.16;4938486;29;20039;-82
2022/06/23 03:36:55;;;;;;;4.50;3.58;;;;;;;15.81;80.76;99425.22;4955086;29;20039;-83
2022/06/23 03:42:23;;;;;;;5.55;3.40;;;;;;;15.97;80.44;99427.59;4893359;29;20533;-83
2022/06/23 03:44:53;;;;;;;4.38;3.13;;;;;;;16.07;79.82;99422.50;4878936;29;20128;-83
2022/06/23 03:47:32;;;;;;;4.95;3.50;;;;;;;16.17;79.88;99419.06;4878492;29;20124;-82
2022/06/23 03:50:22;;;;;;;4.05;3.38;;;;;;;16.24;79.78;99431.78;4894574;29;20105;-83
2022/06/23 03:53:12;;;;;;;5.82;4.05;;;;;;;16.31;79.67;99433.84;4878837;29;20045;-83
2022/06/23 03:55:44;;;;;;;5.80;4.13;;;;;;;16.40;78.87;99435.78;4878812;29;20037;-83
2022/06/23 03:58:20;;;;;;;5.43;3.67;;;;;;;16.53;77.72;99424.38;4893559;29;20082;-83
2022/06/23 04:01:00;;;;;;;6.10;4.03;;;;;;;16.74;77.27;99435.09;4878394;29;20100;-83
2022/06/23 04:03:31;;;;;;;4.10;3.42;;;;;;;16.86;76.31;99428.91;4893708;29;20029;-83
2022/06/23 04:05:57;;;;;;;9.50;4.30;;;;;;;17.09;75.48;99433.25;4942069;29;20075;-83
2022/06/23 04:08:26;;;;;;;4.60;3.33;;;;;;;17.24;75.06;99433.88;4934480;29;20075;-83
2022/06/23 04:10:54;;;;;;;5.43;3.78;;;;;;;17.31;74.36;99431.56;4951170;29;20071;-83
2022/06/23 04:13:27;;;;;;;7.43;4.13;;;;;;;17.71;73.19;99437.19;4991130;28;20042;-83
2022/06/23 04:16:00;;;;;;;6.53;3.85;;;;;;;18.56;70.15;99439.09;5032060;28;20038;-83
2022/06/23 04:18:29;;;;;;;4.88;3.50;;;;;;;19.36;66.62;99430.56;5034042;28;20551;-82
2022/06/23 04:21:07;;;;;;;6.13;3.57;;;;;;;20.14;63.20;99432.50;5031753;28;20132;-83
2022/06/23 04:23:41;;;;;;;8.43;4.00;;;;;;;20.61;60.40;99437.94;5048149;28;20037;-82
2022/06/23 04:26:12;;;;;;;7.57;4.07;;;;;;;20.97;58.18;99434.69;5048357;28;20041;-83
2022/06/23 04:28:45;;;;;;;8.32;3.88;;;;;;;21.15;56.86;99447.03;5048393;28;20041;-83
2022/06/23 04:31:18;;;;;;;7.18;3.50;;;;;;;21.74;55.38;99446.81;5048365;28;20033;-83
2022/06/23 04:33:46;;;;;;;7.60;4.20;;;;;;;22.68;50.82;99439.34;5048056;28;20045;-83
2022/06/23 04:36:24;;;;;;;6.22;4.15;;;;;;;23.60;49.19;99453.88;5048389;28;20485;-83
2022/06/23 04:39:07;;;;;;;7.53;4.22;;;;;;;23.64;46.98;99442.75;5031764;28;20140;-83
2022/06/23 04:41:46;;;;;;;5.43;3.78;;;;;;;23.39;47.44;99446.28;5047973;28;20034;-83
2022/06/23 04:44:19;;;;;;;5.68;3.00;;;;;;;23.59;47.87;99462.81;5048349;28;20417;-83
2022/06/23 04:46:50;;;;;;;5.80;3.38;;;;;;;23.62;48.19;99462.50;5048220;28;20116;-83
2022/06/23 04:49:25;;;;;;;6.28;4.00;;;;;;;23.57;48.40;99470.13;5048022;28;20034;-83
2022/06/23 04:51:59;;;;;;;7.03;3.83;;;;;;;23.73;47.58;99472.91;5048075;28;20037;-83
2022/06/23 04:54:35;;;;;;;7.63;3.50;;;;;;;24.48;46.51;99472.94;5047879;28;20033;-84
2022/06/23 04:57:09;;;;;;;8.50;3.78;;;;;;;26.05;42.59;99467.97;5048022;28;20060;-83
2022/06/23 04:59:48;;;;;;;6.05;3.65;;;;;;;27.04;39.88;99473.41;5053558;28;20084;-83
2022/06/23 05:02:32;;;;;;;6.43;3.90;;;;;;;26.94;39.83;99480.88;5052547;28;20052;-84
2022/06/23 05:05:10;;;;;;;6.53;3.25;;;;;;;26.78;39.63;99471.16;5053812;28;20468;-83
2022/06/23 05:07:50;;;;;;;4.93;3.22;;;;;;;26.48;40.77;99484.41;5052273;28;20024;-83
2022/06/23 05:10:27;;;;;;;7.38;3.58;;;;;;;26.42;41.01;99481.56;5062238;28;20045;-83
2022/06/23 05:13:06;;;;;;;6.20;3.30;;;;;;;25.81;41.98;99481.44;5072267;28;20072;-83
2022/06/23 05:15:42;;;;;;;6.28;3.85;;;;;;;26.20;41.49;99484.06;5072204;28;20094;-83
2022/06/23 05:18:29;;;;;;;4.90;3.65;;;;;;;27.49;39.37;99488.53;5073564;28;20033;-83
2022/06/23 05:21:04;;;;;;;5.18;3.70;;;;;;;29.24;35.83;99486.50;5072103;28;20033;-84
2022/06/23 05:24:02;;;;;;;6.85;3.65;;;;;;;29.78;34.57;99476.91;5105622;28;20025;-83
2022/06/23 05:26:56;;;;;;;5.28;3.53;;;;;;;29.17;34.70;99490.19;5073261;28;20020;-81
2022/06/23 05:29:31;;;;;;;5.43;3.50;;;;;;;28.56;36.31;99498.69;5014137;28;20038;-81
2022/06/23 05:32:19;;;;;;;5.75;3.35;;;;;;;27.99;37.25;99499.50;5014114;28;20052;-81
2022/06/23 05:35:06;;;;;;;4.93;3.33;;;;;;;27.93;38.16;99492.19;4952452;29;20054;-81
2022/06/23 05:37:47;;;;;;;5.47;3.20;;;;;;;27.83;38.15;99492.50;4936345;29;20136;-82
2022/06/23 05:40:19;;;;;;;4.43;3.00;;;;;;;27.88;38.37;99490.09;4936464;29;20039;-82
2022/06/23 05:42:48;;;;;;;6.18;3.40;;;;;;;27.96;38.16;99491.84;4952604;29;20035;-82
2022/06/23 05:45:24;;;;;;;7.43;2.75;;;;;;;27.50;38.39;99492.03;4951676;28;20054;-82
2022/06/23 05:47:50;;;;;;;6.50;2.78;;;;;;;27.41;38.11;99495.81;4936423;29;20117;-81
2022/06/23 05:50:22;;;;;;;4.70;2.85;;;;;;;27.88;37.45;99505.31;4952506;29;20059;-81
2022/06/23 05:53:01;;;;;;;3.20;2.38;;;;;;;28.24;36.52;99511.53;4952286;28;20039;-82
2022/06/23 05:55:56;;;;;;;4.90;2.80;;;;;;;28.20;36.38;99514.78;4936075;29;20039;-81
2022/06/23 05:58:32;;;;;;;4.05;2.75;;;;;;;28.23;35.80;99507.22;4876051;29;20505;-81
2022/06/23 06:01:30;;;;;;;7.45;3.25;;;;;;;28.18;34.65;99520.31;4876184;29;20037;-81
2022/06/23 06:04:24;;;;;;;4.57;2.40;;;;;;;28.37;35.22;99526.94;4860561;29;20129;-81
2022/06/23 06:06:50;;;;;;;6.68;2.50;;;;;;;29.02;33.45;99530.47;4852840;29;20045;-81
2022/06/23 06:09:37;;;;;;;5.97;2.33;;;;;;;29.61;32.57;99526.59;4857522;29;20041;-81
2022/06/23 06:12:18;;;;;;;3.53;2.10;;;;;;;30.46;31.40;99525.31;4868529;29;20045;-81
2022/06/23 06:14:59;;;;;;;4.32;2.50;;;;;;;31.03;30.34;99524.78;4876443;29;20044;-81
2022/06/23 06:17:28;;;;;;;3.60;2.50;;;;;;;30.80;29.64;99524.34;4876616;29;20375;-81
2022/06/23 06:19:57;;;;;;;5.40;2.60;;;;;;;31.05;29.52;99525.41;4860823;29;20128;-82
2022/06/23 06:22:56;;;;;;;4.50;2.70;;;;;;;33.45;27.38;99530.53;4860358;29;20077;-81
2022/06/23 06:25:28;;;;;;;10.00;3.30;;;;;;;35.11;9.30;99528.38;4875987;29;20053;-81
2022/06/23 06:27:57;;;;;;;5.20;2.40;;;;;;;36.76;22.04;99526.94;4876393;29;20120;-81
2022/06/23 06:30:30;;;;;;;6.47;2.20;;;;;;;39.15;19.86;99536.47;4891489;29;20073;-81
2022/06/23 06:32:57;;;;;;;4.50;2.28;;;;;;;42.18;16.87;99531.06;4892825;29;20044;-82
2022/06/23 06:35:38;;;;;;;3.60;2.30;;;;;;;44.91;14.95;99541.25;4932364;28;20035;-82
2022/06/23 06:38:17;;;;;;;3.67;2.10;;;;;;;46.84;13.09;99546.59;4970970;28;20101;-82
2022/06/23 06:40:46;;;;;;;7.70;2.55;;;;;;;48.20;12.72;99547.81;4954606;28;20030;-82
2022/06/23 06:43:16;;;;;;;4.20;2.45;;;;;;;48.10;11.88;99540.66;4970568;28;20037;-82
2022/06/23 06:45:41;;;;;;;2.60;2.00;;;;;;;48.03;11.76;99542.25;5050480;28;20060;-82
2022/06/23 06:48:18;;;;;;;3.60;2.10;;;;;;;49.62;11.42;99533.88;5050662;28;20050;-82
2022/06/23 06:50:47;;;;;;;4.75;2.10;;;;;;;50.94;10.09;99540.81;5050261;28;20027;-82
2022/06/23 06:53:35;;;;;;;2.97;2.40;;;;;;;50.67;10.26;99543.06;5051909;28;20090;-82
2022/06/23 06:56:15;;;;;;;2.72;1.95;;;;;;;52.22;9.22;99538.66;5050571;28;20033;-82
2022/06/23 06:58:45;;;;;;;3.45;1.90;;;;;;;53.41;8.34;99542.63;5051694;28;20320;-82
2022/06/23 07:01:20;;;;;;;3.88;1.98;;;;;;;54.05;8.10;99550.50;5051589;28;20025;-83
2022/06/23 07:03:49;;;;;;;2.72;2.08;;;;;;;54.77;7.79;99554.75;5050374;28;20057;-82
2022/06/23 07:06:14;;;;;;;5.38;1.98;;;;;;;55.51;7.41;99562.84;5050555;28;20025;-83
2022/06/23 07:08:45;;;;;;;2.17;1.95;;;;;;;56.11;7.36;99554.53;5050299;28;20040;-83
2022/06/23 07:11:24;;;;;;;2.90;2.05;;;;;;;56.49;7.15;99555.41;5064281;28;20048;-83
2022/06/23 07:14:11;;;;;;;3.03;1.98;;;;;;;56.69;6.78;99556.00;5050300;28;20074;-83
2022/06/23 07:16:45;;;;;;;3.30;2.10;;;;;;;57.17;6.71;99565.28;5050223;28;20029;-83
2022/06/23 07:19:18;;;;;;;3.72;2.67;;;;;;;56.83;6.58;99561.75;5051720;28;20263;-83
2022/06/23 07:21:55;;;;;;;5.43;2.20;;;;;;;57.34;6.46;99568.63;5051711;28;20097;-83
2022/06/23 07:24:50;;;;;;;3.65;2.10;;;;;;;58.10;6.57;99570.72;5050179;28;20032;-82
2022/06/23 07:27:55;;;;;;;2.60;2.00;;;;;;;57.19;6.78;99576.91;5051620;28;20388;-79
2022/06/23 07:30:35;;;;;;;2.42;2.05;;;;;;;57.07;6.35;99565.22;5051662;28;20063;-79
2022/06/23 07:33:03;;;;;;;4.70;2.03;;;;;;;57.80;6.62;99574.56;5051832;28;20059;-79
2022/06/23 07:35:38;;;;;;;3.58;2.03;;;;;;;58.23;6.23;99574.75;5064242;28;20033;-79
2022/06/23 07:38:06;;;;;;;4.72;2.30;;;;;;;57.82;5.57;99574.94;5051237;28;20021;-79
2022/06/23 07:40:39;;;;;;;2.35;2.15;;;;;;;57.46;5.40;99569.13;5051192;28;20040;-79
2022/06/23 07:43:16;;;;;;;3.10;2.28;;;;;;;56.76;5.79;99554.09;5058922;28;20024;-79
2022/06/23 07:46:07;;;;;;;2.80;2.00;;;;;;;57.15;6.22;99564.88;5071361;28;20032;-79
2022/06/23 07:48:34;;;;;;;2.55;1.95;;;;;;;58.03;5.84;99560.25;4989077;28;20405;-81
2022/06/23 07:51:05;;;;;;;4.75;1.90;;;;;;;58.91;5.79;99569.38;4989398;28;20042;-81
2022/06/23 07:53:37;;;;;;;3.47;2.00;;;;;;;58.91;5.47;99566.56;4989372;28;20046;-81
2022/06/23 07:56:05;;;;;;;2.30;1.90;;;;;;;59.02;4.63;99570.19;4989404;28;20505;-81
2022/06/23 07:58:34;;;;;;;3.38;2.08;;;;;;;57.36;5.98;99567.06;4972972;28;20470;-82
2022/06/23 08:01:17;;;;;;;5.65;2.40;;;;;;;57.25;5.55;99566.16;4989535;28;20034;-81
2022/06/23 08:04:19;;;;;;;3.05;1.90;;;;;;;55.30;6.03;99564.09;4989271;28;20089;-81
2022/06/23 08:06:47;;;;;;;2.92;2.05;;;;;;;54.93;6.30;99554.66;4989714;28;20063;-81
2022/06/23 08:09:24;;;;;;;3.75;2.28;;;;;;;54.94;6.40;99561.84;4992910;28;20112;-81
2022/06/23 08:16:49;;;;;;;2.40;1.73;;;;;;;47.29;10.48;99540.22;4992965;28;20037;-81
2022/06/23 08:17:44;;;;;;;4.28;1.80;;;;;;;42.82;13.04;99546.56;4991461;28;20472;-81
2022/06/23 08:20:15;;;;;;;3.30;1.90;;;;;;;39.55;15.29;99538.63;4972779;28;20475;-81
2022/06/23 08:22:42;;;;;;;2.28;1.83;;;;;;;37.32;16.91;99544.13;4979452;28;20030;-81
2022/06/23 08:25:10;;;;;;;2.67;1.80;;;;;;;36.18;17.55;99544.28;5017992;28;20571;-80
2022/06/23 08:27:40;;;;;;;3.65;2.00;;;;;;;35.31;19.05;99553.22;5052869;28;20064;-80
2022/06/23 08:30:09;;;;;;;6.75;1.70;;;;;;;34.80;19.80;99551.94;5054485;28;20434;-81
2022/06/23 08:32:39;;;;;;;;;;;;;;;33.30;21.93;99560.56;5054625;28;20017;-80
2022/06/23 08:35:26;;;;;;;5.85;2.13;;;;;;;32.27;22.08;99552.69;5054425;28;20331;-80
2022/06/23 08:38:04;;;;;;;3.42;2.13;;;;;;;31.97;22.65;99552.41;5054063;28;20037;-80
2022/06/23 08:41:01;;;;;;;4.03;2.22;;;;;;;31.96;23.26;99548.91;5052645;28;20083;-80
2022/06/23 08:43:38;;;;;;;3.45;2.17;;;;;;;31.34;24.21;99550.25;5054085;28;20032;-81
2022/06/23 08:46:12;;;;;;;3.47;2.10;;;;;;;31.19;25.43;99553.16;5053130;28;20131;-80
2022/06/23 08:48:44;;;;;;;3.22;1.90;;;;;;;31.43;24.79;99548.16;5052613;28;20025;-81
2022/06/23 08:51:41;;;;;;;4.22;1.92;;;;;;;31.61;24.47;99547.53;5035911;28;20535;-80
2022/06/23 08:54:18;;;;;;;2.90;1.70;;;;;;;31.42;24.52;99547.34;5012038;28;20563;-80
2022/06/23 08:56:48;;;;;;;6.32;2.17;;;;;;;30.71;25.20;99547.91;5011448;28;20030;-81
2022/06/23 08:59:43;;;;;;;4.00;2.20;;;;;;;30.04;25.97;99548.69;5011613;28;20069;-80
2022/06/23 09:02:18;;;;;;;2.35;2.03;;;;;;;30.06;25.73;99542.09;5011886;28;20104;-80
2022/06/23 09:05:01;;;;;;;2.70;2.03;;;;;;;29.94;25.83;99541.03;4994810;28;20567;-80
2022/06/23 09:07:42;;;;;;;3.30;1.98;;;;;;;30.02;26.08;99548.91;4995202;28;20560;-80
2022/06/23 09:10:28;;;;;;;4.32;2.20;;;;;;;29.70;26.89;99534.28;5003743;28;20053;-80
2022/06/23 09:13:09;;;;;;;5.55;2.35;;;;;;;29.51;26.77;99541.16;5030942;28;20033;-80
2022/06/23 09:15:52;;;;;;;6.53;2.30;;;;;;;29.43;27.05;99546.69;5030926;28;20140;-80
2022/06/23 09:18:43;;;;;;;3.80;1.90;;;;;;;29.20;26.94;99549.63;5030276;28;20041;-80
2022/06/23 09:21:20;;;;;;;3.53;2.40;;;;;;;29.19;26.80;99556.00;5014605;28;20388;-80
2022/06/23 09:24:11;;;;;;;4.97;2.30;;;;;;;29.14;26.56;99550.38;5030715;28;20033;-80
2022/06/23 09:26:39;;;;;;;3.80;1.90;;;;;;;29.09;27.27;99545.59;5014124;28;20474;-80
2022/06/23 09:29:25;;;;;;;3.70;2.15;;;;;;;29.26;27.43;99545.31;5014499;28;20025;-80
2022/06/23 09:32:05;;;;;;;4.78;2.35;;;;;;;29.22;27.06;99542.19;5032771;28;20047;-80
2022/06/23 09:34:52;;;;;;;4.13;2.58;;;;;;;28.99;27.89;99542.44;5033135;28;20021;-80
2022/06/23 09:37:55;;;;;;;5.68;2.50;;;;;;;29.02;28.15;99547.41;5048377;28;20033;-80
2022/06/23 09:40:39;;;;;;;5.82;2.25;;;;;;;28.94;27.82;99552.03;5033390;28;20036;-80
2022/06/23 09:43:22;;;;;;;4.18;2.17;;;;;;;28.94;27.64;99554.72;5010570;28;20042;-80
2022/06/23 09:45:53;;;;;;;2.58;1.90;;;;;;;28.98;27.56;99553.34;5010640;28;20026;-79
2022/06/23 09:48:27;;;;;;;5.20;2.15;;;;;;;29.12;26.89;99560.50;5010776;28;20045;-80
2022/06/23 09:51:11;;;;;;;5.38;2.30;;;;;;;29.01;26.74;99561.84;5010567;28;20048;-80
2022/06/23 09:53:56;;;;;;;5.00;2.40;;;;;;;28.86;26.91;99563.72;5010448;28;20564;-80
2022/06/23 09:56:31;;;;;;;4.38;2.13;;;;;;;28.91;27.25;99557.78;5010718;28;20037;-80
2022/06/23 09:59:42;;;;;;;4.57;2.28;;;;;;;28.68;26.53;99547.25;5010363;28;20110;-80
2022/06/23 10:02:26;;;;;;;5.28;2.20;;;;;;;28.62;26.90;99561.44;5007995;28;20660;-80
2022/06/23 10:05:27;;;;;;;3.22;2.40;;;;;;;28.55;26.01;99566.72;5010301;28;20121;-80
2022/06/23 10:08:28;;;;;;;3.88;2.15;;;;;;;28.56;26.73;99552.28;4990567;28;20065;-79
2022/06/23 10:11:09;;;;;;;4.00;2.28;;;;;;;28.59;26.87;99563.47;4932435;29;20063;-80
2022/06/23 10:13:49;;;;;;;6.40;2.50;;;;;;;28.35;26.64;99553.91;4943633;28;20058;-80
2022/06/23 10:16:21;;;;;;;7.82;2.70;;;;;;;28.24;27.17;99558.91;4971236;28;20042;-79
2022/06/23 10:19:24;;;;;;;5.85;2.22;;;;;;;28.27;27.42;99556.66;4970992;28;20038;-79
2022/06/23 10:21:57;;;;;;;6.63;2.45;;;;;;;28.33;27.71;99560.47;4970886;28;20586;-80
2022/06/23 10:25:00;;;;;;;4.90;2.20;;;;;;;28.41;27.63;99559.56;4971124;28;20030;-79
2022/06/23 10:27:40;;;;;;;2.10;1.88;;;;;;;28.47;27.58;99556.09;4971449;28;20542;-80
2022/06/23 10:30:42;;;;;;;3.45;2.28;;;;;;;28.21;27.53;99544.03;4970802;28;20085;-80
2022/06/23 10:33:45;;;;;;;2.53;2.08;;;;;;;28.43;28.62;99536.91;4971077;28;20117;-80
2022/06/23 10:36:37;;;;;;;4.30;2.65;;;;;;;28.70;27.60;99548.75;4913622;29;20040;-80
2022/06/23 10:39:08;;;;;;;4.97;2.53;;;;;;;28.54;28.19;99544.44;4894631;29;20119;-80
2022/06/23 10:41:50;;;;;;;4.68;2.47;;;;;;;28.47;27.91;99535.50;4880879;29;20486;-80
2022/06/23 10:44:37;;;;;;;4.50;2.22;;;;;;;28.45;27.92;99545.59;4858834;29;20048;-79
2022/06/23 10:47:20;;;;;;;3.33;2.42;;;;;;;28.46;27.06;99539.19;4879021;29;20113;-79
2022/06/23 10:50:04;;;;;;;3.03;2.03;;;;;;;28.41;27.48;99547.00;4932022;29;20047;-79
2022/06/23 10:53:05;;;;;;;5.05;2.25;;;;;;;28.42;27.51;99539.78;4932403;29;20091;-79
2022/06/23 10:55:43;;;;;;;5.80;2.42;;;;;;;28.28;27.27;99536.09;4932217;29;20066;-80
2022/06/23 10:58:34;;;;;;;2.53;1.90;;;;;;;28.18;27.34;99533.69;4932157;29;20031;-80
2022/06/23 11:01:18;;;;;;;5.82;2.25;;;;;;;28.19;27.01;99543.41;4931912;29;20048;-80
2022/06/23 11:03:57;;;;;;;4.00;2.20;;;;;;;28.05;26.83;99547.75;4932086;29;20035;-80
2022/06/23 11:06:31;;;;;;;5.95;2.20;;;;;;;28.02;26.72;99542.78;4942158;28;20043;-80
2022/06/23 11:09:24;;;;;;;5.20;2.20;;;;;;;28.06;27.16;99535.19;4970409;28;20035;-80
2022/06/23 11:12:13;;;;;;;3.53;2.45;;;;;;;28.01;27.52;99541.09;4989799;28;20050;-80
2022/06/23 11:15:05;;;;;;;3.30;2.53;;;;;;;27.96;27.19;99534.66;4990157;28;20097;-80
2022/06/23 11:17:52;;;;;;;3.03;1.95;;;;;;;27.96;28.41;99532.81;5053497;28;20431;-80
2022/06/23 11:20:33;;;;;;;2.83;2.03;;;;;;;28.14;27.08;99532.41;5078434;28;20031;-80
2022/06/23 11:23:14;;;;;;;4.68;1.98;;;;;;;28.16;27.72;99533.06;5112017;28;20077;-80
2022/06/23 11:25:57;;;;;;;3.78;2.22;;;;;;;28.29;26.94;99535.06;5111927;28;20072;-80
2022/06/23 11:28:40;;;;;;;3.40;2.00;;;;;;;28.39;26.95;99532.09;5112289;28;20034;-80
2022/06/23 11:31:27;;;;;;;3.67;2.30;;;;;;;28.31;27.32;99524.97;5096197;28;20068;-80
2022/06/23 11:34:24;;;;;;;3.67;2.20;;;;;;;28.22;27.64;99526.13;5071249;28;20070;-79
2022/06/23 11:36:53;;;;;;;3.70;2.10;;;;;;;28.25;27.72;99523.91;5071265;28;20408;-80
2022/06/23 11:39:59;;;;;;;6.10;2.63;;;;;;;28.17;27.81;99512.47;5071598;28;20031;-80
2022/06/23 11:42:41;;;;;;;2.67;2.10;;;;;;;28.25;27.84;99521.22;5088067;28;20028;-80
2022/06/23 11:45:46;;;;;;;3.20;2.10;;;;;;;28.46;27.55;99522.31;5092533;28;20085;-80
2022/06/23 11:48:21;;;;;;;5.65;2.38;;;;;;;28.48;27.70;99521.06;5095254;28;20424;-80
2022/06/23 11:50:55;;;;;;;4.53;2.50;;;;;;;28.30;27.53;99517.97;5076539;28;20077;-79
2022/06/23 11:53:20;;;;;;;5.07;2.20;;;;;;;28.37;26.94;99521.59;5077309;28;20032;-80
2022/06/23 11:55:55;;;;;;;3.42;1.95;;;;;;;28.39;26.45;99522.22;5095188;28;20020;-80
2022/06/23 11:58:44;;;;;;;4.80;2.22;;;;;;;28.37;26.76;99521.59;5077014;28;20059;-80
2022/06/23 12:01:18;;;;;;;3.63;2.07;;;;;;;28.34;27.25;99514.72;5094003;28;20028;-80
2022/06/23 12:04:14;;;;;;;3.38;2.10;;;;;;;28.41;26.92;99533.59;5072999;28;20316;-80
2022/06/23 12:07:01;;;;;;;4.40;2.00;;;;;;;28.29;26.71;99529.72;5093799;28;20463;-80
2022/06/23 12:09:35;;;;;;;3.78;2.40;;;;;;;28.14;26.62;99524.38;5094829;28;20494;-80
2022/06/23 12:12:02;;;;;;;2.78;2.20;;;;;;;28.01;27.12;99510.84;5095066;28;20102;-80
2022/06/23 12:14:28;;;;;;;2.85;2.20;;;;;;;27.99;26.89;99503.00;5094931;28;20028;-80
2022/06/23 12:17:08;;;;;;;6.20;2.17;;;;;;;28.14;27.33;99528.91;5094282;28;20024;-80
2022/06/23 12:20:02;;;;;;;2.75;2.08;;;;;;;28.18;26.74;99512.28;5094574;28;20105;-80
2022/06/23 12:22:59;;;;;;;5.28;3.67;;;;;;;28.13;27.08;99519.22;5094361;28;20368;-80
2022/06/23 12:25:32;;;;;;;3.85;2.42;;;;;;;28.04;26.98;99519.31;5076268;28;20024;-80
2022/06/23 12:28:06;;;;;;;3.67;2.10;;;;;;;28.07;27.14;99510.94;5094459;28;20478;-80
2022/06/23 12:30:38;;;;;;;4.28;2.10;;;;;;;28.11;27.21;99500.69;5094692;28;20032;-80
2022/06/23 12:33:42;;;;;;;7.70;2.20;;;;;;;28.24;27.81;99519.56;5076382;28;20077;-80
2022/06/23 12:36:19;;;;;;;3.10;2.10;;;;;;;28.30;27.38;99510.75;4992804;28;20077;-80
2022/06/23 12:38:58;;;;;;;3.28;2.08;;;;;;;28.25;26.81;99515.88;4992150;28;20034;-80